createdAt,value
2023-01-08T00:01:09.683Z,12.57
2023-01-08T00:03:37.728Z,12.56
2023-01-08T00:06:07.014Z,12.56
2023-01-08T00:08:34.673Z,12.59
2023-01-08T00:11:01.967Z,12.58
2023-01-08T00:13:29.660Z,12.61
2023-01-08T00:15:56.609Z,12.65
2023-01-08T00:18:24.946Z,12.63
2023-01-08T00:20:52.011Z,12.65
2023-01-08T00:23:20.227Z,12.66
2023-01-08T00:25:47.628Z,12.67
2023-01-08T00:28:17.621Z,12.67
2023-01-08T00:30:44.820Z,12.66
2023-01-08T00:33:12.308Z,12.65
2023-01-08T00:35:39.727Z,12.59
2023-01-08T00:38:07.234Z,12.53
2023-01-08T00:40:35.525Z,12.49
2023-01-08T00:43:03.310Z,12.47
2023-01-08T00:45:30.941Z,12.44
2023-01-08T00:47:58.180Z,12.37
2023-01-08T00:50:26.237Z,12.32
2023-01-08T00:52:53.277Z,12.24
2023-01-08T00:55:20.353Z,12.19
2023-01-08T00:57:47.286Z,12.10
2023-01-08T01:00:16.554Z,12.03
2023-01-08T01:02:43.790Z,11.95
2023-01-08T01:05:15.444Z,11.92
2023-01-08T01:07:44.480Z,11.88
2023-01-08T01:10:13.732Z,11.82
2023-01-08T01:12:41.586Z,11.80
2023-01-08T01:15:11.438Z,11.78
2023-01-08T01:17:40.499Z,11.78
2023-01-08T01:20:09.646Z,11.77
2023-01-08T01:22:36.844Z,11.76
2023-01-08T01:25:04.029Z,11.74
2023-01-08T01:27:31.249Z,11.70
2023-01-08T01:29:58.324Z,11.67
2023-01-08T01:32:25.602Z,11.66
2023-01-08T01:34:52.748Z,11.63
2023-01-08T01:37:19.839Z,11.64
2023-01-08T01:39:46.971Z,11.62
2023-01-08T01:42:35.845Z,11.63
2023-01-08T01:45:11.894Z,11.61
2023-01-08T01:47:41.184Z,11.62
2023-01-08T01:50:25.867Z,11.62
2023-01-08T01:53:12.182Z,11.63
2023-01-08T01:55:42.853Z,11.61
2023-01-08T01:58:39.806Z,11.62
2023-01-08T02:01:09.340Z,11.64
2023-01-08T02:03:38.830Z,11.70
2023-01-08T02:06:11.825Z,11.71
2023-01-08T02:08:47.707Z,11.77
2023-01-08T02:11:32.977Z,11.82
2023-01-08T02:14:12.251Z,11.85
2023-01-08T02:16:51.378Z,11.89
2023-01-08T02:19:42.899Z,11.98
2023-01-08T02:22:39.198Z,12.03
2023-01-08T02:25:38.136Z,12.08
2023-01-08T02:28:13.784Z,12.09
2023-01-08T02:30:42.253Z,12.15
2023-01-08T02:33:09.565Z,12.16
2023-01-08T02:35:49.052Z,12.18
2023-01-08T02:38:18.475Z,12.18
2023-01-08T02:40:59.027Z,12.20
2023-01-08T02:43:41.027Z,12.21
2023-01-08T02:46:13.269Z,12.22
2023-01-08T02:48:49.035Z,12.25
2023-01-08T02:51:41.258Z,12.25
2023-01-08T02:54:13.516Z,12.24
2023-01-08T02:56:49.380Z,12.24
2023-01-08T02:59:17.759Z,12.23
2023-01-08T03:01:45.894Z,12.21
2023-01-08T03:04:20.139Z,12.23
2023-01-08T03:06:47.499Z,12.25
2023-01-08T03:09:15.972Z,12.22
2023-01-08T03:11:55.041Z,12.18
2023-01-08T03:14:43.805Z,12.18
2023-01-08T03:17:21.187Z,12.19
2023-01-08T03:19:54.558Z,12.17
2023-01-08T03:22:22.922Z,12.16
2023-01-08T03:24:53.520Z,12.12
2023-01-08T03:27:24.809Z,12.08
2023-01-08T03:29:54.653Z,12.03
2023-01-08T03:32:24.111Z,11.99
2023-01-08T03:34:54.670Z,11.94
2023-01-08T03:37:30.040Z,11.88
2023-01-08T03:40:18.003Z,11.83
2023-01-08T03:42:45.106Z,11.74
2023-01-08T03:45:12.325Z,11.69
2023-01-08T03:47:41.408Z,11.67
2023-01-08T03:50:15.517Z,11.62
2023-01-08T03:52:42.759Z,11.60
2023-01-08T03:55:10.027Z,11.65
2023-01-08T03:57:37.065Z,11.68
2023-01-08T04:00:04.878Z,11.70
2023-01-08T04:02:32.100Z,11.66
2023-01-08T04:04:59.379Z,11.65
2023-01-08T04:07:26.352Z,11.66
2023-01-08T04:09:53.531Z,11.64
2023-01-08T04:12:20.536Z,11.66
2023-01-08T04:14:47.911Z,11.66
2023-01-08T04:17:14.946Z,11.62
2023-01-08T04:19:42.259Z,11.62
2023-01-08T04:22:12.548Z,11.63
2023-01-08T04:24:39.953Z,11.61
2023-01-08T04:27:06.976Z,11.58
2023-01-08T04:29:34.128Z,11.51
2023-01-08T04:32:01.171Z,11.44
2023-01-08T04:34:28.311Z,11.43
2023-01-08T04:36:55.274Z,11.40
2023-01-08T04:39:22.386Z,11.36
2023-01-08T04:41:49.406Z,11.32
2023-01-08T04:44:16.569Z,11.27
2023-01-08T04:46:43.572Z,11.24
2023-01-08T04:49:11.701Z,11.23
2023-01-08T04:51:39.123Z,11.19
2023-01-08T04:54:06.558Z,11.15
2023-01-08T04:56:33.541Z,11.10
2023-01-08T04:59:00.714Z,11.06
2023-01-08T05:01:28.237Z,11.08
2023-01-08T05:03:57.734Z,11.04
2023-01-08T05:06:24.890Z,11.03
2023-01-08T05:08:52.219Z,11.03
2023-01-08T05:11:19.234Z,11.04
2023-01-08T05:13:50.743Z,11.03
2023-01-08T05:16:18.310Z,11.03
2023-01-08T05:18:45.746Z,11.05
2023-01-08T05:21:13.985Z,11.04
2023-01-08T05:23:46.497Z,11.06
2023-01-08T05:26:14.453Z,11.04
2023-01-08T05:28:41.629Z,11.04
2023-01-08T05:31:08.908Z,11.08
2023-01-08T05:33:35.962Z,11.05
2023-01-08T05:36:05.815Z,11.03
2023-01-08T05:38:33.026Z,11.00
2023-01-08T05:41:00.145Z,11.00
2023-01-08T05:43:27.316Z,11.01
2023-01-08T05:45:54.405Z,11.00
2023-01-08T05:48:21.529Z,10.99
2023-01-08T05:50:50.580Z,10.96
2023-01-08T05:53:17.741Z,10.93
2023-01-08T05:55:45.007Z,10.91
2023-01-08T05:58:12.302Z,10.93
2023-01-08T06:00:39.594Z,10.94
2023-01-08T06:03:07.010Z,10.96
2023-01-08T06:05:34.135Z,10.95
2023-01-08T06:08:01.580Z,10.96
2023-01-08T06:10:29.128Z,10.94
2023-01-08T06:12:56.143Z,10.93
2023-01-08T06:15:23.370Z,10.93
2023-01-08T06:17:50.446Z,10.98
2023-01-08T06:20:17.590Z,11.00
2023-01-08T06:22:44.588Z,11.04
2023-01-08T06:25:11.754Z,11.05
2023-01-08T06:27:40.559Z,11.04
2023-01-08T06:30:08.350Z,11.03
2023-01-08T06:32:35.415Z,11.06
2023-01-08T06:35:02.629Z,11.19
2023-01-08T06:37:29.757Z,11.30
2023-01-08T06:39:56.934Z,11.45
2023-01-08T06:42:23.988Z,11.58
2023-01-08T06:44:50.918Z,11.72
2023-01-08T06:47:18.012Z,11.86
2023-01-08T06:49:45.094Z,12.03
2023-01-08T06:52:12.338Z,12.17
2023-01-08T06:54:39.450Z,12.29
2023-01-08T06:57:06.368Z,12.33
2023-01-08T06:59:33.349Z,12.40
2023-01-08T07:02:00.566Z,12.47
2023-01-08T07:04:27.704Z,12.57
2023-01-08T07:06:54.882Z,12.66
2023-01-08T07:09:22.021Z,12.71
2023-01-08T07:11:49.239Z,12.77
2023-01-08T07:14:16.285Z,12.84
2023-01-08T07:16:44.585Z,12.91
2023-01-08T07:19:11.750Z,12.94
2023-01-08T07:21:38.885Z,12.99
2023-01-08T07:24:08.191Z,13.08
2023-01-08T07:26:35.592Z,13.16
2023-01-08T07:29:02.541Z,13.22
2023-01-08T07:31:29.730Z,13.26
2023-01-08T07:33:56.857Z,13.25
2023-01-08T07:36:24.603Z,13.32
2023-01-08T07:38:51.894Z,13.42
2023-01-08T07:41:20.462Z,13.55
2023-01-08T07:43:48.639Z,13.61
2023-01-08T07:46:16.407Z,13.65
2023-01-08T07:48:43.508Z,13.72
2023-01-08T07:51:10.995Z,13.77
2023-01-08T07:53:38.236Z,13.91
2023-01-08T07:56:08.190Z,14.13
2023-01-08T07:58:35.943Z,14.13
2023-01-08T08:01:03.254Z,14.10
2023-01-08T08:03:30.421Z,14.16
2023-01-08T08:06:00.317Z,14.20
2023-01-08T08:08:27.731Z,14.22
2023-01-08T08:10:54.693Z,14.28
2023-01-08T08:13:21.893Z,14.39
2023-01-08T08:15:48.941Z,14.44
2023-01-08T08:18:16.151Z,14.54
2023-01-08T08:20:43.211Z,14.71
2023-01-08T08:23:15.059Z,14.83
2023-01-08T08:25:42.909Z,14.95
2023-01-08T08:28:11.647Z,15.05
2023-01-08T08:30:42.387Z,15.15
2023-01-08T08:33:11.202Z,15.27
2023-01-08T08:35:40.658Z,15.38
2023-01-08T08:38:09.247Z,15.52
2023-01-08T08:40:37.846Z,15.62
2023-01-08T08:43:06.074Z,15.73
2023-01-08T08:45:33.378Z,15.86
2023-01-08T08:48:00.390Z,16.02
2023-01-08T08:50:27.506Z,16.13
2023-01-08T08:53:00.613Z,16.29
2023-01-08T08:55:28.733Z,16.36
2023-01-08T08:58:01.936Z,16.50
2023-01-08T09:00:29.809Z,16.59
2023-01-08T09:02:56.980Z,16.60
2023-01-08T09:05:24.235Z,16.72
2023-01-08T09:07:51.349Z,16.90
2023-01-08T09:10:18.442Z,17.05
2023-01-08T09:12:45.463Z,17.13
2023-01-08T09:15:12.682Z,17.21
2023-01-08T09:17:40.834Z,17.33
2023-01-08T09:20:08.340Z,17.46
2023-01-08T09:22:35.550Z,17.32
2023-01-08T09:25:02.591Z,17.43
2023-01-08T09:27:29.683Z,17.62
2023-01-08T09:29:56.764Z,17.52
2023-01-08T09:32:23.842Z,17.47
2023-01-08T09:34:50.986Z,17.42
2023-01-08T09:37:18.064Z,17.24
2023-01-08T09:39:51.040Z,17.13
2023-01-08T09:42:24.777Z,17.19
2023-01-08T09:44:56.041Z,17.30
2023-01-08T09:47:40.232Z,17.40
2023-01-08T09:50:13.777Z,17.54
2023-01-08T09:52:43.552Z,17.70
2023-01-08T09:55:15.445Z,17.76
2023-01-08T09:57:44.528Z,17.77
2023-01-08T10:00:26.179Z,17.68
2023-01-08T10:03:08.612Z,17.59
2023-01-08T10:05:35.937Z,17.42
2023-01-08T10:08:04.755Z,17.36
2023-01-08T10:10:32.656Z,17.44
2023-01-08T10:13:00.009Z,17.48
2023-01-08T10:15:27.095Z,17.40
2023-01-08T10:18:06.179Z,17.44
2023-01-08T10:20:34.266Z,17.53
2023-01-08T10:23:16.702Z,17.64
2023-01-08T10:25:57.641Z,17.70
2023-01-08T10:28:24.871Z,17.83
2023-01-08T10:31:00.672Z,17.64
2023-01-08T10:33:37.750Z,17.67
2023-01-08T10:36:08.640Z,17.75
2023-01-08T10:38:48.521Z,17.62
2023-01-08T10:41:16.414Z,17.69
2023-01-08T10:44:01.295Z,18.15
2023-01-08T10:46:36.817Z,18.39
2023-01-08T10:49:07.264Z,18.63
2023-01-08T10:51:34.592Z,18.61
2023-01-08T10:54:26.952Z,18.36
2023-01-08T10:56:54.195Z,17.92
2023-01-08T10:59:23.259Z,18.11
2023-01-08T11:01:53.151Z,18.11
2023-01-08T11:04:32.686Z,18.02
2023-01-08T11:07:06.353Z,18.00
2023-01-08T11:09:40.187Z,18.11
2023-01-08T11:12:26.719Z,18.42
2023-01-08T11:14:53.989Z,18.64
2023-01-08T11:17:25.931Z,18.64
2023-01-08T11:19:55.789Z,18.59
2023-01-08T11:22:26.870Z,18.44
2023-01-08T11:24:55.094Z,18.30
2023-01-08T11:27:32.419Z,18.12
2023-01-08T11:30:20.647Z,18.08
2023-01-08T11:32:53.436Z,17.99
2023-01-08T11:35:36.241Z,18.00
2023-01-08T11:38:05.650Z,17.93
2023-01-08T11:40:53.292Z,17.79
2023-01-08T11:43:53.477Z,17.71
2023-01-08T11:46:26.979Z,17.77
2023-01-08T11:49:21.649Z,17.76
2023-01-08T11:51:57.515Z,17.64
2023-01-08T11:54:34.941Z,17.68
2023-01-08T11:57:17.136Z,17.78
2023-01-08T12:00:20.253Z,17.79
2023-01-08T12:03:02.878Z,17.71
2023-01-08T12:05:53.403Z,17.75
2023-01-08T12:08:45.060Z,17.78
2023-01-08T12:11:28.845Z,17.87
2023-01-08T12:14:05.159Z,17.72
2023-01-08T12:16:51.999Z,17.74
2023-01-08T12:19:37.145Z,17.58
2023-01-08T12:22:46.859Z,17.54
2023-01-08T12:25:36.440Z,17.44
2023-01-08T12:28:27.604Z,17.40
2023-01-08T12:31:19.652Z,17.31
2023-01-08T12:33:59.001Z,17.41
2023-01-08T12:36:42.969Z,17.51
2023-01-08T12:39:16.008Z,17.63
2023-01-08T12:41:45.620Z,17.64
2023-01-08T12:44:17.627Z,17.61
2023-01-08T12:46:48.715Z,17.69
2023-01-08T12:49:26.312Z,17.73
2023-01-08T12:52:02.194Z,17.85
2023-01-08T12:54:58.403Z,17.94
2023-01-08T12:57:39.169Z,17.93
2023-01-08T13:00:28.001Z,17.71
2023-01-08T13:03:03.222Z,17.66
2023-01-08T13:05:38.191Z,17.66
2023-01-08T13:08:22.152Z,17.57
2023-01-08T13:10:51.970Z,17.50
2023-01-08T13:13:32.465Z,17.62
2023-01-08T13:16:11.549Z,17.58
2023-01-08T13:18:39.322Z,17.71
2023-01-08T13:21:10.724Z,17.65
2023-01-08T13:23:38.590Z,17.59
2023-01-08T13:26:06.877Z,17.67
2023-01-08T13:28:45.300Z,17.53
2023-01-08T13:31:21.406Z,17.48
2023-01-08T13:33:52.626Z,17.45
2023-01-08T13:36:21.573Z,17.46
2023-01-08T13:39:23.312Z,17.40
2023-01-08T13:41:59.214Z,17.15
2023-01-08T13:44:32.229Z,17.15
2023-01-08T13:47:02.406Z,17.08
2023-01-08T13:49:53.289Z,17.00
2023-01-08T13:52:45.501Z,16.94
2023-01-08T13:55:17.372Z,16.90
2023-01-08T13:57:49.188Z,16.85
2023-01-08T14:00:31.395Z,16.86
2023-01-08T14:02:58.520Z,16.88
2023-01-08T14:05:30.902Z,16.93
2023-01-08T14:07:59.216Z,16.93
2023-01-08T14:10:28.786Z,16.95
2023-01-08T14:13:09.622Z,16.96
2023-01-08T14:15:39.121Z,17.00
2023-01-08T14:18:06.613Z,17.16
2023-01-08T14:20:37.280Z,17.18
2023-01-08T14:23:12.423Z,16.98
2023-01-08T14:25:41.777Z,16.88
2023-01-08T14:28:16.845Z,16.84
2023-01-08T14:30:55.932Z,16.85
2023-01-08T14:33:29.440Z,16.79
2023-01-08T14:35:57.447Z,16.63
2023-01-08T14:38:24.647Z,16.61
2023-01-08T14:41:08.001Z,16.55
2023-01-08T14:43:42.133Z,16.50
2023-01-08T14:46:29.940Z,16.48
2023-01-08T14:48:58.378Z,16.43
2023-01-08T14:51:31.260Z,16.28
2023-01-08T14:54:05.606Z,16.27
2023-01-08T14:56:35.062Z,16.28
2023-01-08T14:59:10.133Z,16.20
2023-01-08T15:01:37.904Z,16.17
2023-01-08T15:04:17.417Z,16.15
2023-01-08T15:06:44.903Z,16.14
2023-01-08T15:09:27.976Z,16.09
2023-01-08T15:11:58.234Z,16.06
2023-01-08T15:14:27.886Z,16.01
2023-01-08T15:17:00.622Z,15.95
2023-01-08T15:19:30.948Z,15.91
2023-01-08T15:22:02.249Z,15.82
2023-01-08T15:24:31.030Z,15.73
2023-01-08T15:26:59.552Z,15.65
2023-01-08T15:29:33.463Z,15.60
2023-01-08T15:32:19.072Z,15.55
2023-01-08T15:34:46.584Z,15.48
2023-01-08T15:37:15.299Z,15.45
2023-01-08T15:39:43.286Z,15.44
2023-01-08T15:42:31.717Z,15.42
2023-01-08T15:44:58.774Z,15.40
2023-01-08T15:47:25.721Z,15.36
2023-01-08T15:49:54.652Z,15.33
2023-01-08T15:52:25.465Z,15.31
2023-01-08T15:54:52.699Z,15.29
2023-01-08T15:57:21.279Z,15.29
2023-01-08T15:59:48.409Z,15.23
2023-01-08T16:02:16.559Z,15.21
2023-01-08T16:04:44.351Z,15.16
2023-01-08T16:07:11.378Z,15.09
2023-01-08T16:09:38.455Z,15.06
2023-01-08T16:12:05.855Z,15.04
2023-01-08T16:14:34.650Z,14.98
2023-01-08T16:17:01.744Z,14.93
2023-01-08T16:19:30.575Z,14.90
2023-01-08T16:25:14.206Z,14.85
2023-01-08T16:27:43.185Z,14.78
2023-01-08T16:30:14.840Z,14.71
2023-01-08T16:32:42.255Z,14.63
2023-01-08T16:35:10.844Z,14.51
2023-01-08T16:37:39.357Z,14.44
2023-01-08T16:40:07.166Z,14.31
2023-01-08T16:42:35.530Z,14.27
2023-01-08T16:45:03.030Z,14.20
2023-01-08T16:47:30.357Z,14.15
2023-01-08T16:49:57.439Z,14.19
2023-01-08T16:52:24.643Z,14.19
2023-01-08T16:54:51.741Z,14.21
2023-01-08T16:57:18.958Z,14.18
2023-01-08T16:59:46.177Z,14.15
2023-01-08T17:02:13.544Z,14.14
2023-01-08T17:04:40.614Z,14.16
2023-01-08T17:07:07.958Z,14.15
2023-01-08T17:09:35.083Z,14.10
2023-01-08T17:12:02.258Z,14.06
2023-01-08T17:14:29.622Z,14.06
2023-01-08T17:16:57.129Z,14.06
2023-01-08T17:19:24.360Z,14.06
2023-01-08T17:21:51.789Z,14.03
2023-01-08T17:24:19.055Z,14.00
2023-01-08T17:26:46.372Z,13.99
2023-01-08T17:29:13.557Z,13.95
2023-01-08T17:31:40.852Z,13.92
2023-01-08T17:34:13.524Z,13.88
2023-01-08T17:36:41.223Z,13.84
2023-01-08T17:39:08.630Z,13.82
2023-01-08T17:41:54.843Z,13.80
2023-01-08T17:44:22.106Z,13.76
2023-01-08T17:46:49.405Z,13.76
2023-01-08T17:49:17.248Z,13.76
2023-01-08T17:51:46.001Z,13.73
2023-01-08T17:54:15.585Z,13.73
2023-01-08T17:56:44.102Z,13.71
2023-01-08T17:59:16.051Z,13.67
2023-01-08T18:01:45.632Z,13.68
2023-01-08T18:04:14.670Z,13.66
2023-01-08T18:06:42.938Z,13.66
2023-01-08T18:09:12.192Z,13.65
2023-01-08T18:11:40.477Z,13.66
2023-01-08T18:14:09.871Z,13.62
2023-01-08T18:16:37.103Z,13.63
2023-01-08T18:19:04.333Z,13.61
2023-01-08T18:21:31.469Z,13.58
2023-01-08T18:23:58.936Z,13.57
2023-01-08T18:26:26.147Z,13.56
2023-01-08T18:28:53.425Z,13.54
2023-01-08T18:31:21.969Z,13.51
2023-01-08T18:33:52.744Z,13.50
2023-01-08T18:36:20.481Z,13.50
2023-01-08T18:38:48.606Z,13.48
2023-01-08T18:41:39.400Z,13.48
2023-01-08T18:44:08.029Z,13.48
2023-01-08T18:46:35.812Z,13.47
2023-01-08T18:49:02.989Z,13.47
2023-01-08T18:51:30.315Z,13.48
2023-01-08T18:53:57.652Z,13.45
2023-01-08T18:56:30.022Z,13.40
2023-01-08T18:58:57.547Z,13.38
2023-01-08T19:01:25.120Z,13.37
2023-01-08T19:03:52.221Z,13.38
2023-01-08T19:06:19.277Z,13.39
2023-01-08T19:08:47.139Z,13.41
2023-01-08T19:11:14.497Z,13.36
2023-01-08T19:13:42.393Z,13.35
2023-01-08T19:16:12.853Z,13.38
2023-01-08T19:18:40.549Z,13.42
2023-01-08T19:21:09.953Z,13.46
2023-01-08T19:23:36.960Z,13.46
2023-01-08T19:26:08.140Z,13.45
2023-01-08T19:28:35.826Z,13.47
2023-01-08T19:31:03.627Z,13.45
2023-01-08T19:33:30.913Z,13.42
2023-01-08T19:36:11.089Z,13.41
2023-01-08T19:38:41.287Z,13.38
2023-01-08T19:41:27.571Z,13.37
2023-01-08T19:43:55.844Z,13.37
2023-01-08T19:46:23.429Z,13.34
2023-01-08T19:48:50.600Z,13.31
2023-01-08T19:51:18.121Z,13.27
2023-01-08T19:53:45.528Z,13.25
2023-01-08T19:56:14.276Z,13.19
2023-01-08T19:58:42.176Z,13.11
2023-01-08T20:01:21.252Z,13.03
2023-01-08T20:03:48.873Z,12.97
2023-01-08T20:06:19.963Z,12.89
2023-01-08T20:08:48.697Z,12.88
2023-01-08T20:11:17.284Z,12.83
2023-01-08T20:13:44.609Z,12.79
2023-01-08T20:16:15.395Z,12.75
2023-01-08T20:18:43.284Z,12.70
2023-01-08T20:21:18.550Z,12.64
2023-01-08T20:23:45.793Z,12.60
2023-01-08T20:26:16.271Z,12.57
2023-01-08T20:28:44.801Z,12.55
2023-01-08T20:31:15.767Z,12.55
2023-01-08T20:33:44.026Z,12.52
2023-01-08T20:36:13.354Z,12.55
2023-01-08T20:38:41.539Z,12.58
2023-01-08T20:41:08.715Z,12.58
2023-01-08T20:43:38.137Z,12.57
2023-01-08T20:46:06.448Z,12.55
2023-01-08T20:48:37.081Z,12.58
2023-01-08T20:51:14.885Z,12.57
2023-01-08T20:53:42.192Z,12.54
2023-01-08T20:56:11.825Z,12.52
2023-01-08T20:58:42.452Z,12.50
2023-01-08T21:01:21.870Z,12.47
2023-01-08T21:03:50.932Z,12.44
2023-01-08T21:06:20.589Z,12.47
2023-01-08T21:08:50.255Z,12.50
2023-01-08T21:11:19.001Z,12.48
2023-01-08T21:13:46.878Z,12.53
2023-01-08T21:16:39.705Z,12.52
2023-01-08T21:19:10.573Z,12.55
2023-01-08T21:21:40.557Z,12.50
2023-01-08T21:24:11.525Z,12.46
2023-01-08T21:26:39.377Z,12.45
2023-01-08T21:29:09.319Z,12.43
2023-01-08T21:31:37.992Z,12.42
2023-01-08T21:34:06.302Z,12.39
2023-01-08T21:36:33.615Z,12.43
2023-01-08T21:39:01.717Z,12.48
2023-01-08T21:41:48.745Z,12.44
2023-01-08T21:44:37.785Z,12.47
2023-01-08T21:47:07.515Z,12.43
2023-01-08T21:49:36.208Z,12.42
2023-01-08T21:52:22.883Z,12.40
2023-01-08T21:54:50.357Z,12.36
2023-01-08T21:57:17.486Z,12.37
2023-01-08T21:59:44.955Z,12.36
2023-01-08T22:02:16.597Z,12.38
2023-01-08T22:04:44.848Z,12.36
2023-01-08T22:07:12.803Z,12.33
2023-01-08T22:09:39.899Z,12.29
2023-01-08T22:12:07.905Z,12.22
2023-01-08T22:14:35.454Z,12.20
2023-01-08T22:17:04.339Z,12.22
2023-01-08T22:19:31.520Z,12.21
2023-01-08T22:21:58.506Z,12.18
2023-01-08T22:24:25.683Z,12.19
2023-01-08T22:26:52.846Z,12.18
2023-01-08T22:29:20.934Z,12.24
2023-01-08T22:31:48.178Z,12.24
2023-01-08T22:34:17.530Z,12.25
2023-01-08T22:36:50.371Z,12.24
2023-01-08T22:39:17.611Z,12.23
2023-01-08T22:41:44.814Z,12.23
2023-01-08T22:44:13.642Z,12.22
2023-01-08T22:46:40.977Z,12.17
2023-01-08T22:49:11.582Z,12.07
2023-01-08T22:51:39.373Z,12.06
2023-01-08T22:54:06.466Z,12.06
2023-01-08T22:56:33.557Z,12.02
2023-01-08T22:59:00.598Z,12.03
2023-01-08T23:01:28.227Z,12.01
2023-01-08T23:03:57.892Z,11.97
2023-01-08T23:06:27.705Z,11.98
2023-01-08T23:08:56.107Z,11.95
2023-01-08T23:11:24.998Z,11.94
2023-01-08T23:13:52.978Z,11.96
2023-01-08T23:16:24.503Z,11.94
2023-01-08T23:18:52.749Z,11.92
2023-01-08T23:21:22.009Z,11.90
2023-01-08T23:23:49.411Z,11.87
2023-01-08T23:26:20.043Z,11.85
2023-01-08T23:28:49.132Z,11.80
2023-01-08T23:31:19.721Z,11.78
2023-01-08T23:33:47.505Z,11.81
2023-01-08T23:36:18.525Z,11.76
2023-01-08T23:38:46.502Z,11.73
2023-01-08T23:41:14.365Z,11.73
2023-01-08T23:43:42.036Z,11.76
2023-01-08T23:46:09.950Z,11.76
2023-01-08T23:48:37.106Z,11.77
2023-01-08T23:51:04.237Z,11.76
2023-01-08T23:53:31.249Z,11.72
2023-01-08T23:55:58.316Z,11.71
2023-01-08T23:58:25.681Z,11.74
